createdAt,value
2023-05-03T00:01:45.439Z,2.50
2023-05-03T00:04:17.015Z,1.65
2023-05-03T00:06:46.775Z,2.60
2023-05-03T00:09:16.030Z,2.35
2023-05-03T00:11:44.398Z,1.58
2023-05-03T00:14:12.882Z,2.03
2023-05-03T00:16:41.149Z,3.20
2023-05-03T00:19:17.741Z,2.75
2023-05-03T00:21:54.364Z,3.35
2023-05-03T00:24:22.886Z,1.40
2023-05-03T00:26:51.323Z,3.70
2023-05-03T00:29:21.276Z,2.55
2023-05-03T00:31:49.664Z,2.65
2023-05-03T00:34:18.250Z,1.85
2023-05-03T00:36:46.443Z,5.53
2023-05-03T00:39:16.382Z,2.15
2023-05-03T00:41:44.612Z,2.50
2023-05-03T00:44:13.091Z,2.90
2023-05-03T00:46:42.083Z,1.73
2023-05-03T00:49:10.631Z,3.42
2023-05-03T00:51:39.567Z,4.75
2023-05-03T00:54:08.558Z,2.45
2023-05-03T00:56:48.400Z,2.78
2023-05-03T00:59:20.738Z,2.65
2023-05-03T01:01:50.409Z,2.45
2023-05-03T01:04:21.540Z,3.25
2023-05-03T01:07:00.217Z,5.30
2023-05-03T01:09:36.248Z,3.38
2023-05-03T01:12:28.045Z,2.30
2023-05-03T01:15:06.397Z,4.43
2023-05-03T01:17:40.080Z,5.53
2023-05-03T01:20:12.392Z,4.00
2023-05-03T01:22:47.878Z,2.65
2023-05-03T01:25:17.777Z,1.55
2023-05-03T01:27:46.067Z,4.25
2023-05-03T01:30:15.018Z,7.15
2023-05-03T01:32:53.816Z,3.15
2023-05-03T01:35:27.783Z,2.75
2023-05-03T01:37:57.628Z,4.53
2023-05-03T01:40:30.414Z,3.00
2023-05-03T01:42:58.863Z,5.20
2023-05-03T01:45:27.871Z,3.78
2023-05-03T01:47:57.802Z,7.55
2023-05-03T01:50:26.390Z,3.38
2023-05-03T01:52:54.658Z,3.17
2023-05-03T01:55:23.145Z,5.00
2023-05-03T01:57:52.765Z,4.20
2023-05-03T02:00:21.613Z,3.67
2023-05-03T02:02:49.939Z,3.50
2023-05-03T02:05:18.532Z,4.05
2023-05-03T02:07:46.765Z,5.00
2023-05-03T02:10:16.297Z,6.05
2023-05-03T02:12:45.013Z,2.30
2023-05-03T02:15:15.044Z,7.22
2023-05-03T02:17:45.702Z,5.60
2023-05-03T02:20:14.620Z,3.53
2023-05-03T02:22:43.270Z,3.17
2023-05-03T02:25:11.734Z,6.43
2023-05-03T02:27:40.557Z,2.75
2023-05-03T02:30:09.980Z,6.15
2023-05-03T02:32:39.692Z,3.20
2023-05-03T02:35:09.239Z,5.53
2023-05-03T02:37:37.505Z,5.07
2023-05-03T02:40:07.210Z,6.47
2023-05-03T02:42:35.458Z,3.63
2023-05-03T02:45:04.658Z,4.47
2023-05-03T02:47:33.041Z,5.43
2023-05-03T02:50:03.077Z,5.45
2023-05-03T02:52:31.534Z,7.75
2023-05-03T02:55:00.026Z,4.63
2023-05-03T02:57:28.286Z,4.20
2023-05-03T02:59:56.944Z,3.30
2023-05-03T03:02:25.371Z,4.85
2023-05-03T03:04:53.980Z,11.60
2023-05-03T03:07:23.620Z,3.53
2023-05-03T03:09:52.201Z,5.18
2023-05-03T03:12:20.758Z,4.18
2023-05-03T03:14:50.531Z,5.20
2023-05-03T03:17:19.124Z,5.40
2023-05-03T03:19:47.828Z,5.82
2023-05-03T03:22:16.139Z,3.45
2023-05-03T03:24:46.857Z,3.70
2023-05-03T03:27:15.192Z,3.22
2023-05-03T03:29:43.783Z,2.45
2023-05-03T03:32:12.059Z,5.13
2023-05-03T03:34:40.610Z,5.25
2023-05-03T03:37:08.823Z,3.92
2023-05-03T03:39:39.218Z,4.28
2023-05-03T03:42:10.054Z,3.92
2023-05-03T03:44:38.833Z,7.07
2023-05-03T03:47:07.577Z,8.30
2023-05-03T03:49:36.251Z,4.60
2023-05-03T03:52:04.717Z,3.60
2023-05-03T03:54:34.677Z,7.20
2023-05-03T03:57:03.060Z,3.65
2023-05-03T03:59:33.085Z,4.55
2023-05-03T04:02:01.363Z,4.50
2023-05-03T04:04:31.822Z,7.40
2023-05-03T04:07:00.235Z,6.40
2023-05-03T04:09:28.729Z,3.92
2023-05-03T04:11:57.031Z,10.10
2023-05-03T04:14:25.590Z,7.25
2023-05-03T04:16:55.171Z,4.28
2023-05-03T04:19:25.315Z,14.10
2023-05-03T04:21:53.720Z,6.97
2023-05-03T04:24:22.278Z,3.70
2023-05-03T04:26:51.484Z,2.60
2023-05-03T04:29:20.682Z,4.47
2023-05-03T04:31:48.966Z,8.27
2023-05-03T04:34:19.109Z,5.85
2023-05-03T04:36:47.386Z,3.40
2023-05-03T04:39:16.039Z,5.75
2023-05-03T04:41:44.342Z,4.00
2023-05-03T04:44:14.431Z,5.72
2023-05-03T04:46:43.428Z,7.53
2023-05-03T04:49:12.110Z,6.82
2023-05-03T04:51:41.719Z,5.93
2023-05-03T04:54:10.286Z,5.55
2023-05-03T04:56:38.611Z,3.47
2023-05-03T04:59:07.574Z,7.75
2023-05-03T05:01:36.162Z,7.40
2023-05-03T05:04:05.367Z,14.80
2023-05-03T05:06:33.801Z,3.42
2023-05-03T05:09:04.546Z,6.18
2023-05-03T05:11:32.880Z,11.55
2023-05-03T05:14:01.412Z,5.82
2023-05-03T05:16:29.715Z,6.05
2023-05-03T05:18:58.279Z,5.75
2023-05-03T05:21:27.041Z,5.63
2023-05-03T05:23:57.738Z,11.20
2023-05-03T05:26:28.204Z,9.43
2023-05-03T05:28:57.133Z,2.85
2023-05-03T05:31:25.477Z,6.93
2023-05-03T05:33:54.096Z,2.40
2023-05-03T05:36:22.448Z,2.80
2023-05-03T05:38:51.008Z,5.20
2023-05-03T05:41:19.289Z,5.07
2023-05-03T05:43:49.220Z,6.65
2023-05-03T05:46:19.924Z,5.03
2023-05-03T05:48:48.458Z,6.18
2023-05-03T05:51:17.166Z,3.72
2023-05-03T05:53:45.759Z,7.68
2023-05-03T05:56:14.490Z,5.43
2023-05-03T05:58:43.194Z,5.00
2023-05-03T06:01:12.911Z,4.82
2023-05-03T06:03:41.498Z,5.60
2023-05-03T06:06:09.984Z,3.25
2023-05-03T06:08:38.723Z,5.10
2023-05-03T06:11:07.856Z,3.03
2023-05-03T06:13:38.692Z,5.88
2023-05-03T06:16:07.958Z,3.05
2023-05-03T06:18:39.084Z,4.32
2023-05-03T06:21:07.353Z,3.30
2023-05-03T06:23:37.750Z,1.77
2023-05-03T06:26:06.159Z,3.83
2023-05-03T06:28:34.864Z,2.85
2023-05-03T06:31:03.661Z,5.75
2023-05-03T06:33:32.330Z,4.43
2023-05-03T06:36:01.980Z,1.95
2023-05-03T06:38:30.580Z,2.20
2023-05-03T06:40:58.896Z,7.45
2023-05-03T06:43:27.377Z,4.50
2023-05-03T06:45:56.107Z,4.63
2023-05-03T06:48:24.982Z,3.08
2023-05-03T06:50:53.501Z,3.30
2023-05-03T06:53:23.297Z,9.70
2023-05-03T06:55:52.086Z,6.38
2023-05-03T06:58:20.613Z,4.78
2023-05-03T07:00:52.741Z,11.45
2023-05-03T07:03:21.435Z,1.98
2023-05-03T07:05:49.958Z,6.50
2023-05-03T07:08:18.580Z,1.45
2023-05-03T07:10:48.138Z,3.97
2023-05-03T07:13:16.830Z,2.97
2023-05-03T07:15:45.893Z,3.70
2023-05-03T07:18:14.496Z,1.55
2023-05-03T07:20:42.780Z,4.28
2023-05-03T07:23:11.392Z,1.38
2023-05-03T07:25:39.856Z,1.08
2023-05-03T07:28:09.917Z,4.72
2023-05-03T07:30:38.357Z,1.45
2023-05-03T07:33:07.213Z,2.50
2023-05-03T07:35:35.598Z,1.20
2023-05-03T07:38:04.278Z,0.82
2023-05-03T07:40:33.357Z,1.23
2023-05-03T07:43:02.184Z,7.40
2023-05-03T07:45:31.872Z,3.72
2023-05-03T07:48:00.650Z,1.38
2023-05-03T07:50:29.289Z,2.63
2023-05-03T07:52:57.896Z,1.67
2023-05-03T07:55:26.932Z,7.25
2023-05-03T07:57:59.053Z,1.10
2023-05-03T08:00:27.913Z,1.40
2023-05-03T08:02:58.251Z,1.33
2023-05-03T08:05:26.923Z,1.77
2023-05-03T08:07:55.822Z,1.98
2023-05-03T08:10:24.251Z,1.20
2023-05-03T08:12:52.809Z,3.13
2023-05-03T08:15:21.656Z,2.22
2023-05-03T08:17:50.396Z,3.42
2023-05-03T08:20:21.040Z,1.65
2023-05-03T08:22:49.818Z,0.77
2023-05-03T08:25:19.050Z,0.85
2023-05-03T08:27:47.640Z,2.88
2023-05-03T08:30:16.287Z,1.88
2023-05-03T08:32:44.962Z,1.67
2023-05-03T08:35:15.030Z,3.05
2023-05-03T08:37:45.474Z,2.25
2023-05-03T08:40:15.164Z,2.00
2023-05-03T08:42:44.884Z,1.23
2023-05-03T08:45:15.800Z,0.98
2023-05-03T08:47:47.674Z,6.18
2023-05-03T08:50:16.956Z,1.05
2023-05-03T08:52:46.987Z,0.70
2023-05-03T08:55:15.360Z,3.50
2023-05-03T08:57:44.100Z,2.88
2023-05-03T09:00:13.566Z,0.85
2023-05-03T09:02:42.558Z,3.00
2023-05-03T09:05:34.109Z,2.63
2023-05-03T09:08:05.732Z,2.10
2023-05-03T09:10:35.448Z,2.25
2023-05-03T09:13:04.365Z,3.22
2023-05-03T09:15:32.740Z,4.35
2023-05-03T09:18:09.433Z,1.75
2023-05-03T09:20:39.008Z,1.63
2023-05-03T09:23:10.522Z,2.55
2023-05-03T09:25:43.330Z,2.33
2023-05-03T09:28:12.076Z,1.45
2023-05-03T09:30:40.592Z,1.27
2023-05-03T09:33:09.243Z,6.40
2023-05-03T09:35:37.577Z,3.80
2023-05-03T09:38:07.268Z,4.60
2023-05-03T09:40:48.069Z,1.45
2023-05-03T09:43:19.535Z,1.73
2023-05-03T09:45:48.125Z,3.35
2023-05-03T09:48:18.970Z,3.80
2023-05-03T09:50:47.524Z,5.82
2023-05-03T09:53:18.676Z,3.30
2023-05-03T09:55:50.875Z,1.55
2023-05-03T09:58:20.772Z,5.95
2023-05-03T10:00:52.590Z,2.10
2023-05-03T10:03:25.745Z,1.45
2023-05-03T10:05:55.581Z,3.83
2023-05-03T10:08:31.983Z,5.38
2023-05-03T10:11:03.553Z,8.00
2023-05-03T10:13:32.541Z,1.42
2023-05-03T10:16:06.422Z,3.78
2023-05-03T10:18:38.505Z,3.30
2023-05-03T10:21:13.029Z,5.13
2023-05-03T10:24:13.064Z,4.72
2023-05-03T10:26:43.892Z,5.30
2023-05-03T10:29:48.731Z,5.00
2023-05-03T10:32:30.967Z,7.82
2023-05-03T10:35:03.706Z,7.13
2023-05-03T10:37:34.966Z,1.52
2023-05-03T10:40:11.899Z,1.00
2023-05-03T10:42:45.273Z,2.47
2023-05-03T10:45:33.299Z,2.47
2023-05-03T10:48:23.275Z,1.63
2023-05-03T10:50:52.903Z,1.05
2023-05-03T10:53:38.497Z,1.25
2023-05-03T10:56:09.180Z,1.10
2023-05-03T10:58:43.089Z,1.92
2023-05-03T11:01:13.718Z,1.95
2023-05-03T11:03:50.037Z,1.30
2023-05-03T11:06:35.817Z,2.15
2023-05-03T11:09:07.156Z,4.22
2023-05-03T11:11:39.456Z,2.20
2023-05-03T11:14:09.972Z,1.70
2023-05-03T11:16:41.166Z,1.58
2023-05-03T11:19:09.592Z,2.08
2023-05-03T11:21:38.169Z,1.30
2023-05-03T11:24:07.269Z,1.33
2023-05-03T11:26:39.383Z,2.88
2023-05-03T11:29:10.766Z,1.00
2023-05-03T11:31:43.235Z,1.63
2023-05-03T11:34:12.401Z,1.55
2023-05-03T11:36:41.927Z,1.08
2023-05-03T11:39:10.494Z,9.30
2023-05-03T11:41:39.045Z,1.38
2023-05-03T11:44:17.178Z,2.13
2023-05-03T11:46:47.724Z,8.57
2023-05-03T11:49:20.115Z,1.70
2023-05-03T11:51:52.665Z,4.10
2023-05-03T11:54:26.082Z,2.08
2023-05-03T11:56:58.286Z,2.92
2023-05-03T11:59:40.735Z,3.45
2023-05-03T12:02:11.938Z,2.20
2023-05-03T12:04:42.754Z,2.72
2023-05-03T12:07:15.046Z,2.47
2023-05-03T12:09:52.544Z,2.60
2023-05-03T12:12:32.419Z,3.78
2023-05-03T12:15:08.017Z,1.00
2023-05-03T12:17:39.637Z,2.75
2023-05-03T12:21:02.667Z,1.80
2023-05-03T12:23:10.287Z,2.25
2023-05-03T12:25:40.576Z,3.88
2023-05-03T12:28:20.154Z,2.10
2023-05-03T12:30:57.508Z,3.95
2023-05-03T12:33:28.551Z,1.65
2023-05-03T12:36:04.296Z,1.20
2023-05-03T12:38:36.218Z,2.25
2023-05-03T12:41:08.963Z,5.30
2023-05-03T12:43:38.255Z,1.42
2023-05-03T12:46:32.356Z,1.50
2023-05-03T12:48:59.192Z,2.88
2023-05-03T12:51:33.130Z,2.10
2023-05-03T12:54:02.519Z,2.20
2023-05-03T12:56:33.302Z,1.48
2023-05-03T12:59:31.644Z,3.13
2023-05-03T13:04:55.902Z,0.93
2023-05-03T13:07:14.998Z,1.48
2023-05-03T13:12:34.383Z,1.10
2023-05-03T13:15:04.035Z,3.17
2023-05-03T13:17:34.269Z,3.88
2023-05-03T13:20:03.343Z,0.60
2023-05-03T13:22:33.994Z,1.45
2023-05-03T13:25:04.188Z,1.00
2023-05-03T13:27:32.879Z,1.92
2023-05-03T13:30:04.723Z,3.25
2023-05-03T13:32:34.406Z,0.70
2023-05-03T13:35:03.356Z,1.55
2023-05-03T13:37:31.774Z,3.22
2023-05-03T13:40:01.495Z,2.67
2023-05-03T13:42:30.596Z,1.15
2023-05-03T13:44:59.215Z,1.17
2023-05-03T13:47:33.104Z,1.13
2023-05-03T13:50:12.726Z,1.23
2023-05-03T13:52:42.498Z,2.53
2023-05-03T13:55:11.645Z,1.85
2023-05-03T13:57:39.975Z,5.93
2023-05-03T14:00:10.701Z,2.72
2023-05-03T14:02:39.223Z,1.38
2023-05-03T14:05:08.755Z,1.02
2023-05-03T14:07:39.162Z,1.75
2023-05-03T14:10:09.117Z,3.33
2023-05-03T14:12:37.973Z,1.48
2023-05-03T14:15:07.926Z,3.15
2023-05-03T14:17:36.961Z,1.60
2023-05-03T14:20:08.397Z,1.52
2023-05-03T14:22:38.227Z,1.35
2023-05-03T14:25:08.030Z,1.17
2023-05-03T14:27:36.681Z,2.97
2023-05-03T14:30:06.291Z,0.98
2023-05-03T14:32:34.832Z,1.35
2023-05-03T14:35:04.197Z,3.38
2023-05-03T14:37:33.370Z,2.60
2023-05-03T14:40:03.632Z,1.67
2023-05-03T14:42:32.507Z,6.10
2023-05-03T14:45:01.640Z,1.10
2023-05-03T14:47:29.973Z,3.47
2023-05-03T14:49:58.512Z,2.88
2023-05-03T14:52:26.981Z,1.25
2023-05-03T14:54:55.603Z,1.98
2023-05-03T14:57:25.503Z,1.55
2023-05-03T14:59:54.028Z,2.47
2023-05-03T15:02:22.801Z,2.92
2023-05-03T15:04:52.625Z,4.97
2023-05-03T15:07:21.269Z,5.93
2023-05-03T15:09:49.888Z,11.82
2023-05-03T15:12:18.410Z,1.13
2023-05-03T15:14:48.572Z,2.47
2023-05-03T15:17:16.958Z,1.98
2023-05-03T15:19:45.726Z,3.20
2023-05-03T15:22:13.973Z,1.63
2023-05-03T15:24:42.544Z,2.55
2023-05-03T15:27:10.850Z,2.58
2023-05-03T15:29:39.520Z,1.27
2023-05-03T15:32:09.159Z,2.00
2023-05-03T15:34:38.141Z,1.08
2023-05-03T15:37:07.171Z,2.97
2023-05-03T15:39:35.796Z,3.17
2023-05-03T15:42:03.984Z,2.10
2023-05-03T15:44:32.624Z,2.90
2023-05-03T15:47:01.767Z,1.52
2023-05-03T15:49:31.709Z,1.65
2023-05-03T15:52:00.154Z,1.70
2023-05-03T15:54:28.634Z,4.40
2023-05-03T15:56:57.729Z,1.38
2023-05-03T15:59:26.514Z,4.70
2023-05-03T16:01:54.851Z,1.40
2023-05-03T16:04:23.498Z,1.95
2023-05-03T16:06:53.312Z,2.33
2023-05-03T16:09:22.257Z,5.13
2023-05-03T16:11:50.876Z,4.93
2023-05-03T16:14:19.577Z,5.20
2023-05-03T16:16:48.540Z,7.65
2023-05-03T16:19:18.451Z,2.50
2023-05-03T16:21:46.961Z,1.17
2023-05-03T16:24:17.078Z,3.17
2023-05-03T16:26:45.336Z,1.73
2023-05-03T16:29:13.897Z,9.70
2023-05-03T16:31:42.095Z,1.63
2023-05-03T16:34:10.693Z,3.35
2023-05-03T16:36:43.033Z,1.10
2023-05-03T16:39:12.053Z,3.25
2023-05-03T16:41:41.929Z,1.25
2023-05-03T16:44:11.048Z,1.00
2023-05-03T16:46:40.667Z,1.45
2023-05-03T16:49:09.697Z,0.90
2023-05-03T16:51:37.996Z,1.23
2023-05-03T16:54:06.680Z,1.30
2023-05-03T16:56:35.044Z,4.25
2023-05-03T16:59:05.342Z,1.92
2023-05-03T17:01:33.653Z,1.88
2023-05-03T17:04:02.953Z,2.08
2023-05-03T17:06:34.682Z,2.95
2023-05-03T17:09:03.942Z,2.92
2023-05-03T17:11:32.621Z,1.55
2023-05-03T17:14:01.781Z,2.53
2023-05-03T17:16:31.922Z,1.10
2023-05-03T17:19:01.042Z,1.50
2023-05-03T17:21:29.455Z,2.78
2023-05-03T17:23:58.329Z,2.97
2023-05-03T17:26:26.583Z,1.70
2023-05-03T17:28:55.043Z,4.10
2023-05-03T17:31:23.400Z,1.30
2023-05-03T17:33:53.567Z,1.70
2023-05-03T17:36:22.590Z,2.13
2023-05-03T17:38:51.539Z,3.65
2023-05-03T17:41:19.871Z,1.88
2023-05-03T17:43:49.622Z,1.70
2023-05-03T17:46:20.343Z,1.73
2023-05-03T17:48:48.884Z,3.33
2023-05-03T17:51:18.584Z,3.33
2023-05-03T17:53:47.047Z,1.95
2023-05-03T17:56:16.208Z,6.00
2023-05-03T17:58:45.478Z,1.90
2023-05-03T18:01:15.738Z,1.75
2023-05-03T18:03:44.931Z,3.40
2023-05-03T18:06:14.594Z,1.67
2023-05-03T18:08:44.517Z,1.70
2023-05-03T18:11:13.093Z,2.95
2023-05-03T18:13:41.628Z,1.90
2023-05-03T18:16:10.619Z,2.95
2023-05-03T18:18:39.230Z,1.83
2023-05-03T18:21:08.126Z,8.82
2023-05-03T18:23:36.700Z,2.10
2023-05-03T18:26:07.739Z,3.58
2023-05-03T18:28:37.676Z,5.95
2023-05-03T18:31:06.116Z,1.92
2023-05-03T18:33:34.846Z,4.05
2023-05-03T18:36:04.957Z,4.18
2023-05-03T18:38:33.400Z,2.58
2023-05-03T18:41:01.668Z,3.97
2023-05-03T18:43:32.312Z,3.35
2023-05-03T18:46:03.626Z,2.53
2023-05-03T18:48:32.403Z,5.68
2023-05-03T18:51:02.317Z,7.40
2023-05-03T18:53:31.852Z,4.85
2023-05-03T18:56:00.399Z,5.53
2023-05-03T18:58:29.217Z,4.80
2023-05-03T19:01:00.418Z,5.13
2023-05-03T19:03:30.715Z,5.85
2023-05-03T19:06:02.535Z,8.48
2023-05-03T19:08:31.279Z,5.25
2023-05-03T19:11:08.542Z,5.35
2023-05-03T19:13:37.223Z,8.57
2023-05-03T19:16:07.404Z,10.70
2023-05-03T19:18:37.174Z,19.33
2023-05-03T19:21:05.827Z,19.52
2023-05-03T19:23:34.492Z,20.48
2023-05-03T19:26:03.220Z,18.35
2023-05-03T19:28:32.175Z,25.45
2023-05-03T19:31:04.395Z,22.80
2023-05-03T19:33:34.456Z,17.02
2023-05-03T19:36:06.466Z,27.40
2023-05-03T19:38:36.352Z,29.20
2023-05-03T19:41:08.281Z,36.85
2023-05-03T19:43:37.070Z,32.17
2023-05-03T19:46:05.348Z,29.17
2023-05-03T19:48:35.328Z,35.85
2023-05-03T19:51:05.213Z,31.40
2023-05-03T19:53:34.128Z,30.15
2023-05-03T19:56:03.834Z,29.58
2023-05-03T19:58:32.991Z,32.15
2023-05-03T20:01:01.738Z,31.23
2023-05-03T20:03:30.378Z,31.52
2023-05-03T20:06:00.292Z,27.00
2023-05-03T20:08:28.842Z,38.45
2023-05-03T20:10:57.056Z,32.20
2023-05-03T20:13:27.639Z,33.00
2023-05-03T20:15:56.325Z,29.27
2023-05-03T20:18:25.049Z,39.60
2023-05-03T20:20:53.249Z,32.92
2023-05-03T20:23:23.651Z,37.88
2023-05-03T20:25:51.900Z,35.90
2023-05-03T20:28:20.391Z,32.90
2023-05-03T20:30:48.739Z,56.22
2023-05-03T20:33:17.363Z,39.25
2023-05-03T20:35:45.603Z,43.90
2023-05-03T20:38:14.448Z,35.05
2023-05-03T20:40:44.162Z,51.45
2023-05-03T20:43:13.416Z,40.10
2023-05-03T20:45:41.891Z,49.53
2023-05-03T20:48:10.443Z,42.35
2023-05-03T20:50:38.654Z,48.35
2023-05-03T20:53:07.301Z,53.13
2023-05-03T20:55:35.516Z,53.88
2023-05-03T20:58:05.961Z,48.70
2023-05-03T21:00:34.142Z,54.70
2023-05-03T21:03:02.882Z,34.22
2023-05-03T21:05:31.158Z,41.15
2023-05-03T21:07:59.893Z,39.58
2023-05-03T21:10:28.130Z,36.72
2023-05-03T21:12:56.610Z,34.88
2023-05-03T21:15:26.254Z,34.35
2023-05-03T21:17:54.737Z,45.75
2023-05-03T21:20:23.496Z,41.92
2023-05-03T21:22:52.086Z,29.63
2023-05-03T21:25:20.325Z,26.23
2023-05-03T21:27:48.783Z,35.28
2023-05-03T21:30:17.313Z,38.97
2023-05-03T21:32:49.725Z,27.92
2023-05-03T21:35:18.337Z,32.92
2023-05-03T21:37:47.467Z,23.77
2023-05-03T21:40:16.768Z,20.77
2023-05-03T21:42:45.715Z,25.27
2023-05-03T21:45:14.984Z,24.38
2023-05-03T21:47:43.899Z,25.35
2023-05-03T21:50:14.111Z,27.60
2023-05-03T21:52:43.107Z,27.45
2023-05-03T21:55:12.216Z,33.88
2023-05-03T21:57:40.720Z,22.63
2023-05-03T22:00:14.274Z,30.45
2023-05-03T22:02:42.946Z,21.98
2023-05-03T22:05:11.472Z,19.30
2023-05-03T22:07:41.245Z,24.98
2023-05-03T22:10:10.482Z,22.95
2023-05-03T22:12:39.450Z,22.92
2023-05-03T22:15:09.169Z,33.72
2023-05-03T22:17:38.117Z,29.73
2023-05-03T22:20:07.740Z,31.75
2023-05-03T22:22:36.434Z,36.65
2023-05-03T22:25:06.799Z,28.45
2023-05-03T22:27:35.332Z,27.60
2023-05-03T22:30:03.967Z,33.70
2023-05-03T22:32:32.777Z,39.80
2023-05-03T22:35:01.077Z,34.05
2023-05-03T22:37:29.757Z,37.35
2023-05-03T22:39:57.992Z,31.63
2023-05-03T22:42:27.956Z,30.35
2023-05-03T22:44:57.468Z,33.20
2023-05-03T22:47:26.054Z,30.50
2023-05-03T22:49:54.329Z,23.42
2023-05-03T22:52:22.885Z,38.20
2023-05-03T22:54:57.919Z,28.55
2023-05-03T22:57:27.860Z,23.48
2023-05-03T22:59:56.632Z,26.08
2023-05-03T23:02:25.292Z,32.15
2023-05-03T23:04:53.892Z,23.63
2023-05-03T23:07:22.308Z,22.83
2023-05-03T23:09:50.481Z,20.83
2023-05-03T23:12:18.919Z,29.05
2023-05-03T23:14:48.481Z,22.80
2023-05-03T23:17:16.900Z,22.65
2023-05-03T23:19:45.146Z,15.93
2023-05-03T23:22:13.768Z,20.13
2023-05-03T23:24:42.217Z,20.52
2023-05-03T23:27:12.430Z,19.92
2023-05-03T23:29:41.543Z,20.23
2023-05-03T23:32:11.772Z,17.08
2023-05-03T23:34:40.420Z,12.85
2023-05-03T23:37:08.884Z,17.33
2023-05-03T23:39:37.243Z,15.07
2023-05-03T23:42:06.057Z,8.48
2023-05-03T23:44:46.884Z,15.40
2023-05-03T23:47:20.701Z,12.43
2023-05-03T23:49:48.984Z,14.20
2023-05-03T23:52:19.173Z,12.40
2023-05-03T23:54:47.492Z,17.08
2023-05-03T23:57:16.237Z,13.88
2023-05-03T23:59:44.479Z,20.98
